sensor_id;sensor_type;location;lat;lon;timestamp;P1;durP1;ratioP1;P2;durP2;ratioP2
68806;SDS011;55800;54.272;18.558;2022-10-31T00:01:41;33.95;;;17.15;;
68806;SDS011;55800;54.272;18.558;2022-10-31T00:04:12;33.90;;;21.98;;
68806;SDS011;55800;54.272;18.558;2022-10-31T00:06:41;33.92;;;18.63;;
68806;SDS011;55800;54.272;18.558;2022-10-31T00:09:12;36.85;;;21.45;;
68806;SDS011;55800;54.272;18.558;2022-10-31T00:11:41;32.97;;;17.75;;
68806;SDS011;55800;54.272;18.558;2022-10-31T00:14:10;38.75;;;18.52;;
68806;SDS011;55800;54.272;18.558;2022-10-31T00:16:40;32.50;;;17.63;;
68806;SDS011;55800;54.272;18.558;2022-10-31T00:19:09;34.90;;;18.65;;
68806;SDS011;55800;54.272;18.558;2022-10-31T00:21:39;35.17;;;21.00;;
68806;SDS011;55800;54.272;18.558;2022-10-31T00:24:08;41.58;;;19.88;;
68806;SDS011;55800;54.272;18.558;2022-10-31T00:26:39;33.28;;;19.33;;
68806;SDS011;55800;54.272;18.558;2022-10-31T00:29:09;37.10;;;20.00;;
68806;SDS011;55800;54.272;18.558;2022-10-31T00:31:39;33.50;;;18.92;;
68806;SDS011;55800;54.272;18.558;2022-10-31T00:34:08;36.08;;;18.85;;
68806;SDS011;55800;54.272;18.558;2022-10-31T00:36:38;31.63;;;17.90;;
68806;SDS011;55800;54.272;18.558;2022-10-31T00:39:12;36.72;;;17.67;;
68806;SDS011;55800;54.272;18.558;2022-10-31T00:44:12;35.45;;;19.50;;
68806;SDS011;55800;54.272;18.558;2022-10-31T00:46:42;34.72;;;18.90;;
68806;SDS011;55800;54.272;18.558;2022-10-31T00:49:11;30.63;;;19.15;;
68806;SDS011;55800;54.272;18.558;2022-10-31T00:51:40;39.25;;;19.38;;
68806;SDS011;55800;54.272;18.558;2022-10-31T00:54:10;28.92;;;18.42;;
68806;SDS011;55800;54.272;18.558;2022-10-31T00:56:39;33.42;;;18.30;;
68806;SDS011;55800;54.272;18.558;2022-10-31T00:59:10;33.53;;;19.63;;
68806;SDS011;55800;54.272;18.558;2022-10-31T01:01:40;33.25;;;17.90;;
68806;SDS011;55800;54.272;18.558;2022-10-31T01:04:10;33.38;;;17.88;;
68806;SDS011;55800;54.272;18.558;2022-10-31T01:06:39;32.47;;;18.20;;
68806;SDS011;55800;54.272;18.558;2022-10-31T01:09:09;38.60;;;20.30;;
68806;SDS011;55800;54.272;18.558;2022-10-31T01:11:38;36.10;;;18.05;;
68806;SDS011;55800;54.272;18.558;2022-10-31T01:14:10;35.28;;;17.77;;
68806;SDS011;55800;54.272;18.558;2022-10-31T01:16:39;33.75;;;16.42;;
68806;SDS011;55800;54.272;18.558;2022-10-31T01:19:08;40.17;;;21.55;;
68806;SDS011;55800;54.272;18.558;2022-10-31T01:21:38;35.97;;;19.65;;
68806;SDS011;55800;54.272;18.558;2022-10-31T01:24:07;39.17;;;18.60;;
68806;SDS011;55800;54.272;18.558;2022-10-31T01:26:37;38.38;;;20.15;;
68806;SDS011;55800;54.272;18.558;2022-10-31T01:29:09;45.17;;;21.13;;
68806;SDS011;55800;54.272;18.558;2022-10-31T01:31:39;43.05;;;21.52;;
68806;SDS011;55800;54.272;18.558;2022-10-31T01:34:09;41.83;;;22.55;;
68806;SDS011;55800;54.272;18.558;2022-10-31T01:36:43;47.03;;;23.90;;
68806;SDS011;55800;54.272;18.558;2022-10-31T01:39:18;44.80;;;19.98;;
68806;SDS011;55800;54.272;18.558;2022-10-31T01:41:48;43.22;;;21.83;;
68806;SDS011;55800;54.272;18.558;2022-10-31T01:47:31;47.55;;;22.67;;
68806;SDS011;55800;54.272;18.558;2022-10-31T01:50:06;40.15;;;21.85;;
68806;SDS011;55800;54.272;18.558;2022-10-31T01:52:49;47.05;;;23.27;;
68806;SDS011;55800;54.272;18.558;2022-10-31T01:55:20;44.33;;;23.17;;
68806;SDS011;55800;54.272;18.558;2022-10-31T01:57:57;38.05;;;19.10;;
68806;SDS011;55800;54.272;18.558;2022-10-31T02:00:34;34.00;;;19.95;;
68806;SDS011;55800;54.272;18.558;2022-10-31T02:03:03;39.22;;;19.95;;
68806;SDS011;55800;54.272;18.558;2022-10-31T02:05:33;49.65;;;24.30;;
68806;SDS011;55800;54.272;18.558;2022-10-31T02:08:04;43.90;;;20.88;;
68806;SDS011;55800;54.272;18.558;2022-10-31T02:10:38;45.67;;;25.73;;
68806;SDS011;55800;54.272;18.558;2022-10-31T02:13:10;47.03;;;23.98;;
68806;SDS011;55800;54.272;18.558;2022-10-31T02:15:47;47.28;;;23.13;;
68806;SDS011;55800;54.272;18.558;2022-10-31T02:18:19;48.78;;;23.55;;
68806;SDS011;55800;54.272;18.558;2022-10-31T02:20:53;47.35;;;23.63;;
68806;SDS011;55800;54.272;18.558;2022-10-31T02:23:44;53.15;;;24.13;;
68806;SDS011;55800;54.272;18.558;2022-10-31T02:26:52;43.22;;;22.08;;
68806;SDS011;55800;54.272;18.558;2022-10-31T02:32:32;53.67;;;27.60;;
68806;SDS011;55800;54.272;18.558;2022-10-31T02:35:23;58.03;;;24.95;;
68806;SDS011;55800;54.272;18.558;2022-10-31T02:38:02;58.78;;;24.63;;
68806;SDS011;55800;54.272;18.558;2022-10-31T02:40:44;60.53;;;22.23;;
68806;SDS011;55800;54.272;18.558;2022-10-31T02:43:27;53.67;;;23.42;;
68806;SDS011;55800;54.272;18.558;2022-10-31T02:46:04;66.38;;;25.83;;
68806;SDS011;55800;54.272;18.558;2022-10-31T02:48:40;64.20;;;27.25;;
68806;SDS011;55800;54.272;18.558;2022-10-31T02:51:12;58.88;;;26.13;;
68806;SDS011;55800;54.272;18.558;2022-10-31T02:53:43;68.72;;;28.48;;
68806;SDS011;55800;54.272;18.558;2022-10-31T02:56:13;70.47;;;29.27;;
68806;SDS011;55800;54.272;18.558;2022-10-31T02:58:45;68.80;;;29.55;;
68806;SDS011;55800;54.272;18.558;2022-10-31T03:01:30;72.47;;;29.73;;
68806;SDS011;55800;54.272;18.558;2022-10-31T03:04:34;62.17;;;28.58;;
68806;SDS011;55800;54.272;18.558;2022-10-31T03:07:16;79.13;;;29.80;;
68806;SDS011;55800;54.272;18.558;2022-10-31T03:10:00;79.20;;;30.00;;
68806;SDS011;55800;54.272;18.558;2022-10-31T03:12:38;80.13;;;32.22;;
68806;SDS011;55800;54.272;18.558;2022-10-31T03:15:18;81.18;;;29.25;;
68806;SDS011;55800;54.272;18.558;2022-10-31T03:17:53;70.45;;;26.38;;
68806;SDS011;55800;54.272;18.558;2022-10-31T03:20:29;65.13;;;27.00;;
68806;SDS011;55800;54.272;18.558;2022-10-31T03:23:04;86.78;;;30.85;;
68806;SDS011;55800;54.272;18.558;2022-10-31T03:25:39;70.57;;;29.88;;
68806;SDS011;55800;54.272;18.558;2022-10-31T03:28:11;75.55;;;30.80;;
68806;SDS011;55800;54.272;18.558;2022-10-31T03:33:48;67.60;;;28.65;;
68806;SDS011;55800;54.272;18.558;2022-10-31T03:36:21;71.32;;;27.63;;
68806;SDS011;55800;54.272;18.558;2022-10-31T03:38:51;71.10;;;27.90;;
68806;SDS011;55800;54.272;18.558;2022-10-31T03:41:23;59.92;;;26.85;;
68806;SDS011;55800;54.272;18.558;2022-10-31T03:43:57;58.10;;;26.92;;
68806;SDS011;55800;54.272;18.558;2022-10-31T03:46:32;57.22;;;25.88;;
68806;SDS011;55800;54.272;18.558;2022-10-31T03:49:02;53.75;;;23.52;;
68806;SDS011;55800;54.272;18.558;2022-10-31T03:51:35;49.67;;;23.17;;
68806;SDS011;55800;54.272;18.558;2022-10-31T03:54:13;57.72;;;24.63;;
68806;SDS011;55800;54.272;18.558;2022-10-31T03:56:49;61.35;;;24.30;;
68806;SDS011;55800;54.272;18.558;2022-10-31T03:59:23;60.95;;;25.15;;
68806;SDS011;55800;54.272;18.558;2022-10-31T04:01:57;59.45;;;27.90;;
68806;SDS011;55800;54.272;18.558;2022-10-31T04:04:32;61.90;;;27.30;;
68806;SDS011;55800;54.272;18.558;2022-10-31T04:07:05;59.13;;;26.65;;
68806;SDS011;55800;54.272;18.558;2022-10-31T04:09:38;61.97;;;26.60;;
68806;SDS011;55800;54.272;18.558;2022-10-31T04:12:11;59.28;;;27.40;;
68806;SDS011;55800;54.272;18.558;2022-10-31T04:15:09;61.50;;;26.02;;
68806;SDS011;55800;54.272;18.558;2022-10-31T04:17:40;81.22;;;31.98;;
68806;SDS011;55800;54.272;18.558;2022-10-31T04:20:15;66.20;;;29.45;;
68806;SDS011;55800;54.272;18.558;2022-10-31T04:22:46;76.60;;;30.17;;
68806;SDS011;55800;54.272;18.558;2022-10-31T04:25:16;67.25;;;31.02;;
68806;SDS011;55800;54.272;18.558;2022-10-31T04:27:45;65.93;;;29.83;;
68806;SDS011;55800;54.272;18.558;2022-10-31T04:30:14;65.25;;;29.05;;
68806;SDS011;55800;54.272;18.558;2022-10-31T04:32:44;63.58;;;27.27;;
68806;SDS011;55800;54.272;18.558;2022-10-31T04:35:13;65.47;;;29.63;;
68806;SDS011;55800;54.272;18.558;2022-10-31T04:37:43;58.85;;;27.05;;
68806;SDS011;55800;54.272;18.558;2022-10-31T04:40:14;62.30;;;29.02;;
68806;SDS011;55800;54.272;18.558;2022-10-31T04:43:02;62.08;;;28.05;;
68806;SDS011;55800;54.272;18.558;2022-10-31T04:45:32;67.03;;;26.90;;
68806;SDS011;55800;54.272;18.558;2022-10-31T04:48:01;57.22;;;28.10;;
68806;SDS011;55800;54.272;18.558;2022-10-31T04:50:33;58.08;;;29.27;;
68806;SDS011;55800;54.272;18.558;2022-10-31T04:53:03;69.55;;;28.98;;
68806;SDS011;55800;54.272;18.558;2022-10-31T04:55:40;61.60;;;27.55;;
68806;SDS011;55800;54.272;18.558;2022-10-31T04:58:16;59.58;;;30.63;;
68806;SDS011;55800;54.272;18.558;2022-10-31T05:00:46;63.08;;;28.00;;
68806;SDS011;55800;54.272;18.558;2022-10-31T05:03:15;55.03;;;26.77;;
68806;SDS011;55800;54.272;18.558;2022-10-31T05:05:46;61.78;;;27.35;;
68806;SDS011;55800;54.272;18.558;2022-10-31T05:08:15;53.90;;;27.02;;
68806;SDS011;55800;54.272;18.558;2022-10-31T05:10:49;60.70;;;28.75;;
68806;SDS011;55800;54.272;18.558;2022-10-31T05:13:18;53.78;;;25.33;;
68806;SDS011;55800;54.272;18.558;2022-10-31T05:16:13;51.60;;;24.67;;
68806;SDS011;55800;54.272;18.558;2022-10-31T05:19:01;63.28;;;27.48;;
68806;SDS011;55800;54.272;18.558;2022-10-31T05:21:51;50.67;;;27.17;;
68806;SDS011;55800;54.272;18.558;2022-10-31T05:24:20;53.75;;;24.25;;
68806;SDS011;55800;54.272;18.558;2022-10-31T05:26:51;52.47;;;25.55;;
68806;SDS011;55800;54.272;18.558;2022-10-31T05:29:20;60.53;;;27.40;;
68806;SDS011;55800;54.272;18.558;2022-10-31T05:31:50;48.90;;;24.08;;
68806;SDS011;55800;54.272;18.558;2022-10-31T05:34:40;42.40;;;23.75;;
68806;SDS011;55800;54.272;18.558;2022-10-31T05:37:32;62.20;;;28.73;;
68806;SDS011;55800;54.272;18.558;2022-10-31T05:40:02;58.83;;;27.48;;
68806;SDS011;55800;54.272;18.558;2022-10-31T05:42:37;52.92;;;26.02;;
68806;SDS011;55800;54.272;18.558;2022-10-31T05:45:07;48.72;;;26.48;;
68806;SDS011;55800;54.272;18.558;2022-10-31T05:47:59;55.25;;;25.60;;
68806;SDS011;55800;54.272;18.558;2022-10-31T05:50:49;49.53;;;25.77;;
68806;SDS011;55800;54.272;18.558;2022-10-31T05:53:19;53.03;;;28.17;;
68806;SDS011;55800;54.272;18.558;2022-10-31T05:55:48;64.05;;;28.58;;
68806;SDS011;55800;54.272;18.558;2022-10-31T05:58:21;60.45;;;30.63;;
68806;SDS011;55800;54.272;18.558;2022-10-31T06:01:01;52.35;;;26.38;;
68806;SDS011;55800;54.272;18.558;2022-10-31T06:03:32;55.10;;;27.77;;
68806;SDS011;55800;54.272;18.558;2022-10-31T06:06:04;56.22;;;28.77;;
68806;SDS011;55800;54.272;18.558;2022-10-31T06:08:37;66.38;;;27.20;;
68806;SDS011;55800;54.272;18.558;2022-10-31T06:11:12;61.33;;;27.33;;
68806;SDS011;55800;54.272;18.558;2022-10-31T06:14:02;61.53;;;27.98;;
68806;SDS011;55800;54.272;18.558;2022-10-31T06:16:46;67.13;;;31.65;;
68806;SDS011;55800;54.272;18.558;2022-10-31T06:19:36;65.13;;;29.38;;
68806;SDS011;55800;54.272;18.558;2022-10-31T06:24:34;63.90;;;28.55;;
68806;SDS011;55800;54.272;18.558;2022-10-31T06:27:16;71.65;;;30.70;;
68806;SDS011;55800;54.272;18.558;2022-10-31T06:32:28;63.83;;;24.17;;
68806;SDS011;55800;54.272;18.558;2022-10-31T06:37:27;68.53;;;27.60;;
68806;SDS011;55800;54.272;18.558;2022-10-31T06:40:04;58.60;;;28.50;;
68806;SDS011;55800;54.272;18.558;2022-10-31T06:42:57;64.43;;;28.73;;
68806;SDS011;55800;54.272;18.558;2022-10-31T06:45:30;57.00;;;29.02;;
68806;SDS011;55800;54.272;18.558;2022-10-31T06:48:19;58.20;;;29.27;;
68806;SDS011;55800;54.272;18.558;2022-10-31T06:51:28;62.88;;;29.23;;
68806;SDS011;55800;54.272;18.558;2022-10-31T06:53:58;67.60;;;29.05;;
68806;SDS011;55800;54.272;18.558;2022-10-31T06:56:28;67.35;;;29.85;;
68806;SDS011;55800;54.272;18.558;2022-10-31T06:58:58;65.65;;;29.60;;
68806;SDS011;55800;54.272;18.558;2022-10-31T07:01:56;68.40;;;32.70;;
68806;SDS011;55800;54.272;18.558;2022-10-31T07:04:26;67.50;;;32.30;;
68806;SDS011;55800;54.272;18.558;2022-10-31T07:06:56;78.55;;;31.63;;
68806;SDS011;55800;54.272;18.558;2022-10-31T07:09:25;62.97;;;31.77;;
68806;SDS011;55800;54.272;18.558;2022-10-31T07:11:57;70.93;;;32.15;;
68806;SDS011;55800;54.272;18.558;2022-10-31T07:14:28;64.13;;;27.75;;
68806;SDS011;55800;54.272;18.558;2022-10-31T07:19:34;61.75;;;28.13;;
68806;SDS011;55800;54.272;18.558;2022-10-31T07:24:34;63.90;;;30.55;;
68806;SDS011;55800;54.272;18.558;2022-10-31T07:27:13;65.25;;;30.52;;
68806;SDS011;55800;54.272;18.558;2022-10-31T07:29:44;72.72;;;31.80;;
68806;SDS011;55800;54.272;18.558;2022-10-31T07:32:16;76.70;;;33.58;;
68806;SDS011;55800;54.272;18.558;2022-10-31T07:34:51;72.95;;;34.95;;
68806;SDS011;55800;54.272;18.558;2022-10-31T07:37:23;79.97;;;35.55;;
68806;SDS011;55800;54.272;18.558;2022-10-31T07:39:58;72.20;;;34.55;;
68806;SDS011;55800;54.272;18.558;2022-10-31T07:42:29;81.03;;;36.85;;
68806;SDS011;55800;54.272;18.558;2022-10-31T07:45:04;89.95;;;42.20;;
68806;SDS011;55800;54.272;18.558;2022-10-31T07:48:00;70.57;;;33.15;;
68806;SDS011;55800;54.272;18.558;2022-10-31T07:50:49;74.93;;;33.75;;
68806;SDS011;55800;54.272;18.558;2022-10-31T07:53:18;92.15;;;37.60;;
68806;SDS011;55800;54.272;18.558;2022-10-31T07:55:51;88.78;;;42.03;;
68806;SDS011;55800;54.272;18.558;2022-10-31T07:58:26;72.07;;;35.03;;
68806;SDS011;55800;54.272;18.558;2022-10-31T08:00:58;67.22;;;31.88;;
68806;SDS011;55800;54.272;18.558;2022-10-31T08:03:39;72.15;;;34.35;;
68806;SDS011;55800;54.272;18.558;2022-10-31T08:06:34;75.30;;;35.60;;
68806;SDS011;55800;54.272;18.558;2022-10-31T08:09:26;75.90;;;36.97;;
68806;SDS011;55800;54.272;18.558;2022-10-31T08:11:58;72.75;;;33.20;;
68806;SDS011;55800;54.272;18.558;2022-10-31T08:14:30;81.45;;;36.17;;
68806;SDS011;55800;54.272;18.558;2022-10-31T08:16:59;78.53;;;37.35;;
68806;SDS011;55800;54.272;18.558;2022-10-31T08:19:41;77.55;;;38.17;;
68806;SDS011;55800;54.272;18.558;2022-10-31T08:22:13;83.22;;;38.20;;
68806;SDS011;55800;54.272;18.558;2022-10-31T08:27:39;106.82;;;45.42;;
68806;SDS011;55800;54.272;18.558;2022-10-31T08:30:16;93.40;;;44.20;;
68806;SDS011;55800;54.272;18.558;2022-10-31T08:33:09;102.70;;;49.22;;
68806;SDS011;55800;54.272;18.558;2022-10-31T08:36:16;113.18;;;49.03;;
68806;SDS011;55800;54.272;18.558;2022-10-31T08:38:48;106.00;;;50.33;;
68806;SDS011;55800;54.272;18.558;2022-10-31T08:41:23;100.88;;;49.05;;
68806;SDS011;55800;54.272;18.558;2022-10-31T08:43:52;103.90;;;45.88;;
68806;SDS011;55800;54.272;18.558;2022-10-31T08:48:52;117.53;;;55.55;;
68806;SDS011;55800;54.272;18.558;2022-10-31T08:51:24;140.07;;;62.42;;
68806;SDS011;55800;54.272;18.558;2022-10-31T08:53:55;128.88;;;56.70;;
68806;SDS011;55800;54.272;18.558;2022-10-31T08:56:24;121.72;;;54.00;;
68806;SDS011;55800;54.272;18.558;2022-10-31T08:58:54;104.20;;;48.10;;
68806;SDS011;55800;54.272;18.558;2022-10-31T09:01:34;114.95;;;49.33;;
68806;SDS011;55800;54.272;18.558;2022-10-31T09:04:05;97.65;;;46.25;;
68806;SDS011;55800;54.272;18.558;2022-10-31T09:06:37;98.20;;;46.88;;
68806;SDS011;55800;54.272;18.558;2022-10-31T09:09:31;99.13;;;47.15;;
68806;SDS011;55800;54.272;18.558;2022-10-31T09:12:01;98.43;;;44.97;;
68806;SDS011;55800;54.272;18.558;2022-10-31T09:14:42;97.30;;;42.28;;
68806;SDS011;55800;54.272;18.558;2022-10-31T09:20:11;86.28;;;35.45;;
68806;SDS011;55800;54.272;18.558;2022-10-31T09:22:44;86.70;;;37.08;;
68806;SDS011;55800;54.272;18.558;2022-10-31T09:25:13;91.72;;;36.80;;
68806;SDS011;55800;54.272;18.558;2022-10-31T09:27:49;81.80;;;34.80;;
68806;SDS011;55800;54.272;18.558;2022-10-31T09:32:53;79.28;;;32.88;;
68806;SDS011;55800;54.272;18.558;2022-10-31T09:35:24;83.05;;;36.20;;
68806;SDS011;55800;54.272;18.558;2022-10-31T09:37:58;93.63;;;35.42;;
68806;SDS011;55800;54.272;18.558;2022-10-31T09:40:31;90.07;;;36.78;;
68806;SDS011;55800;54.272;18.558;2022-10-31T09:43:06;83.63;;;36.88;;
68806;SDS011;55800;54.272;18.558;2022-10-31T09:45:47;78.43;;;34.40;;
68806;SDS011;55800;54.272;18.558;2022-10-31T09:48:49;76.65;;;33.90;;
68806;SDS011;55800;54.272;18.558;2022-10-31T09:51:45;75.75;;;33.42;;
68806;SDS011;55800;54.272;18.558;2022-10-31T09:54:29;77.60;;;31.52;;
68806;SDS011;55800;54.272;18.558;2022-10-31T09:57:03;65.18;;;32.67;;
68806;SDS011;55800;54.272;18.558;2022-10-31T09:59:40;73.00;;;32.25;;
68806;SDS011;55800;54.272;18.558;2022-10-31T10:02:15;72.22;;;30.85;;
68806;SDS011;55800;54.272;18.558;2022-10-31T10:04:51;80.82;;;33.47;;
68806;SDS011;55800;54.272;18.558;2022-10-31T10:07:28;71.53;;;32.53;;
68806;SDS011;55800;54.272;18.558;2022-10-31T10:10:26;73.57;;;33.15;;
68806;SDS011;55800;54.272;18.558;2022-10-31T10:13:31;67.25;;;32.35;;
68806;SDS011;55800;54.272;18.558;2022-10-31T10:16:27;76.13;;;31.17;;
68806;SDS011;55800;54.272;18.558;2022-10-31T10:19:11;71.32;;;30.58;;
68806;SDS011;55800;54.272;18.558;2022-10-31T10:21:51;88.03;;;33.45;;
68806;SDS011;55800;54.272;18.558;2022-10-31T10:24:36;71.65;;;31.85;;
68806;SDS011;55800;54.272;18.558;2022-10-31T10:27:23;69.13;;;32.83;;
68806;SDS011;55800;54.272;18.558;2022-10-31T10:30:00;76.78;;;30.63;;
68806;SDS011;55800;54.272;18.558;2022-10-31T10:32:36;79.20;;;34.47;;
68806;SDS011;55800;54.272;18.558;2022-10-31T10:35:20;69.35;;;29.55;;
68806;SDS011;55800;54.272;18.558;2022-10-31T10:37:54;63.00;;;31.92;;
68806;SDS011;55800;54.272;18.558;2022-10-31T10:40:36;77.30;;;32.08;;
68806;SDS011;55800;54.272;18.558;2022-10-31T10:43:16;74.13;;;30.67;;
68806;SDS011;55800;54.272;18.558;2022-10-31T10:46:00;67.25;;;29.55;;
68806;SDS011;55800;54.272;18.558;2022-10-31T10:49:11;56.03;;;25.42;;
68806;SDS011;55800;54.272;18.558;2022-10-31T10:51:45;63.08;;;27.02;;
68806;SDS011;55800;54.272;18.558;2022-10-31T10:54:41;55.47;;;27.00;;
68806;SDS011;55800;54.272;18.558;2022-10-31T11:00:18;58.17;;;26.63;;
68806;SDS011;55800;54.272;18.558;2022-10-31T11:02:49;54.58;;;26.15;;
68806;SDS011;55800;54.272;18.558;2022-10-31T11:05:23;49.15;;;24.58;;
68806;SDS011;55800;54.272;18.558;2022-10-31T11:07:56;57.08;;;27.75;;
68806;SDS011;55800;54.272;18.558;2022-10-31T11:13:00;46.83;;;25.13;;
68806;SDS011;55800;54.272;18.558;2022-10-31T11:15:35;52.70;;;24.75;;
68806;SDS011;55800;54.272;18.558;2022-10-31T11:18:19;47.58;;;26.33;;
68806;SDS011;55800;54.272;18.558;2022-10-31T11:20:57;46.83;;;23.08;;
68806;SDS011;55800;54.272;18.558;2022-10-31T11:23:27;48.92;;;23.30;;
68806;SDS011;55800;54.272;18.558;2022-10-31T11:25:58;45.42;;;23.80;;
68806;SDS011;55800;54.272;18.558;2022-10-31T11:28:29;42.28;;;22.65;;
68806;SDS011;55800;54.272;18.558;2022-10-31T11:31:07;37.28;;;21.55;;
68806;SDS011;55800;54.272;18.558;2022-10-31T11:33:44;37.00;;;19.63;;
68806;SDS011;55800;54.272;18.558;2022-10-31T11:36:18;36.25;;;19.23;;
68806;SDS011;55800;54.272;18.558;2022-10-31T11:38:51;38.13;;;20.10;;
68806;SDS011;55800;54.272;18.558;2022-10-31T11:41:24;39.78;;;22.55;;
68806;SDS011;55800;54.272;18.558;2022-10-31T11:43:56;39.38;;;20.80;;
68806;SDS011;55800;54.272;18.558;2022-10-31T11:46:30;35.22;;;18.55;;
68806;SDS011;55800;54.272;18.558;2022-10-31T11:49:04;38.40;;;18.90;;
68806;SDS011;55800;54.272;18.558;2022-10-31T11:51:50;36.33;;;19.90;;
68806;SDS011;55800;54.272;18.558;2022-10-31T11:54:23;31.55;;;18.45;;
68806;SDS011;55800;54.272;18.558;2022-10-31T11:56:55;33.60;;;19.00;;
68806;SDS011;55800;54.272;18.558;2022-10-31T11:59:26;34.88;;;19.95;;
68806;SDS011;55800;54.272;18.558;2022-10-31T12:01:59;32.92;;;18.33;;
68806;SDS011;55800;54.272;18.558;2022-10-31T12:04:31;33.70;;;18.70;;
68806;SDS011;55800;54.272;18.558;2022-10-31T12:07:10;29.13;;;17.77;;
68806;SDS011;55800;54.272;18.558;2022-10-31T12:12:22;28.20;;;17.13;;
68806;SDS011;55800;54.272;18.558;2022-10-31T12:15:18;31.83;;;16.60;;
68806;SDS011;55800;54.272;18.558;2022-10-31T12:21:19;36.22;;;17.77;;
68806;SDS011;55800;54.272;18.558;2022-10-31T12:24:02;29.85;;;19.30;;
68806;SDS011;55800;54.272;18.558;2022-10-31T12:26:44;30.55;;;17.10;;
68806;SDS011;55800;54.272;18.558;2022-10-31T12:29:30;33.70;;;19.02;;
68806;SDS011;55800;54.272;18.558;2022-10-31T12:32:15;31.60;;;18.52;;
68806;SDS011;55800;54.272;18.558;2022-10-31T12:35:08;31.67;;;18.70;;
68806;SDS011;55800;54.272;18.558;2022-10-31T12:37:55;28.88;;;16.08;;
68806;SDS011;55800;54.272;18.558;2022-10-31T12:40:51;32.40;;;17.05;;
68806;SDS011;55800;54.272;18.558;2022-10-31T12:43:39;30.33;;;18.05;;
68806;SDS011;55800;54.272;18.558;2022-10-31T12:46:17;36.53;;;19.85;;
68806;SDS011;55800;54.272;18.558;2022-10-31T12:49:05;32.80;;;18.27;;
68806;SDS011;55800;54.272;18.558;2022-10-31T12:51:49;35.20;;;19.38;;
68806;SDS011;55800;54.272;18.558;2022-10-31T12:54:34;35.35;;;19.67;;
68806;SDS011;55800;54.272;18.558;2022-10-31T12:57:17;34.45;;;18.17;;
68806;SDS011;55800;54.272;18.558;2022-10-31T12:59:51;30.20;;;17.25;;
68806;SDS011;55800;54.272;18.558;2022-10-31T13:02:27;36.30;;;18.70;;
68806;SDS011;55800;54.272;18.558;2022-10-31T13:05:02;30.77;;;17.83;;
68806;SDS011;55800;54.272;18.558;2022-10-31T13:07:37;34.75;;;19.08;;
68806;SDS011;55800;54.272;18.558;2022-10-31T13:10:14;40.70;;;19.77;;
68806;SDS011;55800;54.272;18.558;2022-10-31T13:12:48;42.03;;;21.20;;
68806;SDS011;55800;54.272;18.558;2022-10-31T13:15:22;35.47;;;19.05;;
68806;SDS011;55800;54.272;18.558;2022-10-31T13:17:54;30.80;;;18.92;;
68806;SDS011;55800;54.272;18.558;2022-10-31T13:20:28;37.63;;;20.10;;
68806;SDS011;55800;54.272;18.558;2022-10-31T13:23:04;35.65;;;19.70;;
68806;SDS011;55800;54.272;18.558;2022-10-31T13:25:59;32.67;;;20.50;;
68806;SDS011;55800;54.272;18.558;2022-10-31T13:28:35;37.22;;;19.55;;
68806;SDS011;55800;54.272;18.558;2022-10-31T13:31:08;35.83;;;19.05;;
68806;SDS011;55800;54.272;18.558;2022-10-31T13:33:40;35.65;;;19.45;;
68806;SDS011;55800;54.272;18.558;2022-10-31T13:36:18;36.00;;;20.17;;
68806;SDS011;55800;54.272;18.558;2022-10-31T13:38:56;37.22;;;20.25;;
68806;SDS011;55800;54.272;18.558;2022-10-31T13:41:32;33.47;;;20.58;;
68806;SDS011;55800;54.272;18.558;2022-10-31T13:44:18;34.90;;;18.97;;
68806;SDS011;55800;54.272;18.558;2022-10-31T13:46:51;43.88;;;18.52;;
68806;SDS011;55800;54.272;18.558;2022-10-31T13:49:25;33.97;;;19.70;;
68806;SDS011;55800;54.272;18.558;2022-10-31T13:52:06;37.08;;;19.40;;
68806;SDS011;55800;54.272;18.558;2022-10-31T13:54:44;39.38;;;22.63;;
68806;SDS011;55800;54.272;18.558;2022-10-31T13:57:16;39.15;;;19.90;;
68806;SDS011;55800;54.272;18.558;2022-10-31T13:59:49;44.92;;;23.88;;
68806;SDS011;55800;54.272;18.558;2022-10-31T14:02:23;43.30;;;20.33;;
68806;SDS011;55800;54.272;18.558;2022-10-31T14:04:56;34.95;;;18.45;;
68806;SDS011;55800;54.272;18.558;2022-10-31T14:07:28;43.10;;;20.33;;
68806;SDS011;55800;54.272;18.558;2022-10-31T14:10:02;39.25;;;20.33;;
68806;SDS011;55800;54.272;18.558;2022-10-31T14:12:34;36.10;;;19.65;;
68806;SDS011;55800;54.272;18.558;2022-10-31T14:15:13;38.00;;;22.10;;
68806;SDS011;55800;54.272;18.558;2022-10-31T14:17:45;39.30;;;20.98;;
68806;SDS011;55800;54.272;18.558;2022-10-31T14:23:11;38.72;;;21.58;;
68806;SDS011;55800;54.272;18.558;2022-10-31T14:26:31;39.13;;;20.55;;
68806;SDS011;55800;54.272;18.558;2022-10-31T14:29:02;35.67;;;20.65;;
68806;SDS011;55800;54.272;18.558;2022-10-31T14:31:52;33.90;;;18.42;;
68806;SDS011;55800;54.272;18.558;2022-10-31T14:34:25;36.88;;;19.67;;
68806;SDS011;55800;54.272;18.558;2022-10-31T14:40:04;33.47;;;17.00;;
68806;SDS011;55800;54.272;18.558;2022-10-31T14:42:51;39.45;;;19.83;;
68806;SDS011;55800;54.272;18.558;2022-10-31T14:45:34;36.53;;;18.45;;
68806;SDS011;55800;54.272;18.558;2022-10-31T14:51:10;32.55;;;17.77;;
68806;SDS011;55800;54.272;18.558;2022-10-31T14:53:44;36.47;;;18.23;;
68806;SDS011;55800;54.272;18.558;2022-10-31T14:56:18;31.63;;;18.42;;
68806;SDS011;55800;54.272;18.558;2022-10-31T14:58:53;37.20;;;18.75;;
68806;SDS011;55800;54.272;18.558;2022-10-31T15:01:26;36.38;;;17.60;;
68806;SDS011;55800;54.272;18.558;2022-10-31T15:03:59;33.58;;;17.10;;
68806;SDS011;55800;54.272;18.558;2022-10-31T15:06:51;30.60;;;16.60;;
68806;SDS011;55800;54.272;18.558;2022-10-31T15:09:27;33.03;;;16.67;;
68806;SDS011;55800;54.272;18.558;2022-10-31T15:11:58;32.42;;;17.52;;
68806;SDS011;55800;54.272;18.558;2022-10-31T15:14:29;32.78;;;17.85;;
68806;SDS011;55800;54.272;18.558;2022-10-31T15:17:01;33.40;;;17.15;;
68806;SDS011;55800;54.272;18.558;2022-10-31T15:19:32;28.55;;;15.75;;
68806;SDS011;55800;54.272;18.558;2022-10-31T15:22:03;32.05;;;16.48;;
68806;SDS011;55800;54.272;18.558;2022-10-31T15:24:34;34.88;;;17.42;;
68806;SDS011;55800;54.272;18.558;2022-10-31T15:27:05;32.05;;;17.20;;
68806;SDS011;55800;54.272;18.558;2022-10-31T15:29:49;32.13;;;17.35;;
68806;SDS011;55800;54.272;18.558;2022-10-31T15:32:20;32.28;;;16.45;;
68806;SDS011;55800;54.272;18.558;2022-10-31T15:34:51;32.13;;;16.77;;
68806;SDS011;55800;54.272;18.558;2022-10-31T15:37:22;34.75;;;18.52;;
68806;SDS011;55800;54.272;18.558;2022-10-31T15:39:53;35.97;;;18.88;;
68806;SDS011;55800;54.272;18.558;2022-10-31T15:44:58;40.35;;;18.27;;
68806;SDS011;55800;54.272;18.558;2022-10-31T15:47:33;38.73;;;19.13;;
68806;SDS011;55800;54.272;18.558;2022-10-31T15:50:04;35.17;;;19.10;;
68806;SDS011;55800;54.272;18.558;2022-10-31T15:52:46;37.88;;;19.42;;
68806;SDS011;55800;54.272;18.558;2022-10-31T15:55:18;35.20;;;19.17;;
68806;SDS011;55800;54.272;18.558;2022-10-31T15:57:50;42.75;;;22.23;;
68806;SDS011;55800;54.272;18.558;2022-10-31T16:00:25;38.60;;;19.50;;